Pejman Hosseini

Scout - Sepahan
4 Apr 2027
Sonntag
Verarbeitung

Persönlichkeit

Anpassungsfähigkeit (2) Ehrgeiz (12) Kontroverse (14) Loyalität (2) Druck (11) Professionalität (10) Fairness (13) Temperament (8)

Profil

Trainerstil Demokratisch
Lizenz Kontinentale B
Entschlossenheit 4
Menschenführung 7
Motivation 6
Disziplin 4
Arbeitszufriedenheit
98%
Ermüdung
0%
Rolle Scout
Gehalt 34.1K p/W
Vertrag 14.03.2028

Leistung

Verhalten Gut
Trainingseffektivität
42%
Spielerentwicklung
50%
Verletzungsprävention
20%
Taktische Umsetzung
60%

Letzte Ereignisse

Spieler begutachtet jetzt
Spieler begutachtet jetzt
Nahm an einer Scouting-Besprechung teil jetzt
Spieler begutachtet jetzt
Spieler begutachtet jetzt
Spieler begutachtet jetzt
Spieler begutachtet jetzt
Spieler begutachtet 7T her

Aktuell beobachtet

149
Spieler Verein Status Fähigkeit Vertrauen Beobachtet Zuletzt beobachtet Letzte Stimme
Kyreece Lisbie Colchester United Aktiv 108 / 110 40% 2 03.04.2027 -
Akinkunmi Amoo Ismaily Aktiv 138 / 130 40% 2 03.04.2027 -
Mandla Vilakazi Black Aces Aktiv 113 / 91 40% 2 03.04.2027 -
Abraham Ofori WAFA Aktiv 101 / 94 40% 2 03.04.2027 -
Simon Ramabu Polokwane City Aktiv 118 / 117 40% 3 01.04.2027 -
Lebogang Zwane Black Aces Aktiv 114 / 95 40% 2 01.04.2027 -
Daniel Kyerewaa Reading Aktiv 123 / 104 40% 1 01.04.2027 -
Zizo Al Ahly Aktiv 138 / 128 40% 1 01.04.2027 -
Juan Bezerra Zamalek Aktiv 135 / 107 40% 1 31.03.2027 -
Itumeleng Tau Ajax Cape Town Aktiv 125 / 129 40% 1 30.03.2027 -
Josh Neufville Bradford City Aktiv 111 / 99 40% 1 30.03.2027 -
Nahuel Leivas Montevideo City Torque Aktiv 106 / 106 40% 1 29.03.2027 -
Surprise Manthosi Polokwane City Aktiv 96 / 87 40% 1 29.03.2027 -
Calum Kavanagh Oldham Athletic Aktiv 106 / 97 40% 1 29.03.2027 -
Ibrahim Tarek Masr El Makasa Aktiv 123 / 113 40% 2 27.03.2027 -
Ondrej Duda Zamalek Aktiv 138 / 148 40% 2 27.03.2027 -
Kwesi Pong Heart of Lions Aktiv 92 / 95 40% 1 27.03.2027 -
Federico Valentini Forli Aktiv 78 / 94 40% 1 26.03.2027 -
Maldini Kacurri Grimsby Town Aktiv 97 / 96 40% 1 26.03.2027 -
Edarlyn Reyes Arsenal Tula Aktiv 127 / 104 40% 1 24.03.2027 -
Ben Garrity Port Vale Aktiv 100 / 100 40% 1 24.03.2027 -
Luca Connell Barnsley Aktiv 103 / 106 40% 2 23.03.2027 -
Bohdan Budko AZ Aktiv 106 / 112 40% 1 23.03.2027 -
Joseph Namatane FC Metz Aktiv 81 / 99 40% 1 23.03.2027 -
Isaac Hayden Leyton Orient Aktiv 112 / 120 40% 1 23.03.2027 -
Wilder Cartagena Persepolis Aktiv 130 / 125 40% 1 21.03.2027 -
Charles Vernam Grimsby Town Aktiv 101 / 107 40% 1 21.03.2027 -
James Dornelly Peterborough United Aktiv 93 / 110 40% 2 20.03.2027 -
Velemseni Ndwandwe Golden Arrows Aktiv 94 / 97 40% 1 20.03.2027 -
Karim El Berkaoui Al Dhafra Aktiv 122 / 113 40% 1 20.03.2027 -
Daniel Banjaqui Benfica Aktiv 105 / 115 40% 1 20.03.2027 -
Lebohang Maboe Kaizer Chiefs Aktiv 115 / 113 40% 2 19.03.2027 -
Charlie Webster Burton Albion Aktiv 118 / 115 40% 1 18.03.2027 -
Artem Slesar Zorya Aktiv 105 / 122 40% 1 18.03.2027 -
Thulani Mabaso Platinum Stars Aktiv 94 / 94 40% 2 16.03.2027 -
Brooklyn Poggenpoel Maritzburg United Aktiv 100 / 95 40% 1 16.03.2027 -
Teboho Tau Ajax Cape Town Aktiv 129 / 113 40% 3 15.03.2027 -
Darío Ramírez Real Sociedad Aktiv 83 / 88 40% 1 15.03.2027 -
Cemran Dansin Orlando Pirates Aktiv 99 / 104 40% 1 13.03.2027 -
Maxim Mishutin Ryazan Aktiv 64 / 83 40% 1 13.03.2027 -
Vasyl Bundash Epicentr Aktiv 92 / 89 40% 1 11.03.2027 -
Simone Kosijer Triestina Aktiv 104 / 110 40% 1 11.03.2027 -
Gonçalo Oliveira Benfica Aktiv 109 / 110 40% 3 10.03.2027 -
Dmitry Borodin Dinamo St Petersburg Aktiv 88 / 82 40% 1 10.03.2027 -
Monty Batlhabane Polokwane City Aktiv 82 / 103 40% 1 09.03.2027 -
Andrey Mazurin Yenisey Aktiv 116 / 111 40% 1 09.03.2027 -
Lewis Richards Crawley Town Aktiv 104 / 97 40% 1 08.03.2027 -
Alan Tsaraev Arsenal Tula Aktiv 93 / 103 40% 1 08.03.2027 -
Sergey Chernov Zenit Aktiv 87 / 77 40% 2 07.03.2027 -
Jaygo van Ommeren Utrecht Aktiv 109 / 117 40% 1 07.03.2027 -
Raymond Agyemang Aduana Stars Aktiv 93 / 84 40% 2 06.03.2027 -
Isaac Frimpong Hearts of Oak Aktiv 77 / 72 40% 1 06.03.2027 -
Bradley Mothiba SuperSport United Aktiv 87 / 115 40% 1 05.03.2027 -
Erick Ngcobo Black Aces Aktiv 95 / 94 40% 1 05.03.2027 -
Alexis Fretes Libertad Aktiv 117 / 113 40% 1 04.03.2027 -
Ronan Kpakio Preston Aktiv 124 / 121 40% 1 04.03.2027 -
Martim Cunha Porto Aktiv 96 / 101 40% 1 03.03.2027 -
Stanislav Bukatov Salyut Aktiv 83 / 90 40% 1 03.03.2027 -
Lindon Emërllahu Polissia Aktiv 104 / 126 40% 1 27.02.2027 -
Ali Soliman Masr El Makasa Aktiv 142 / 130 40% 1 27.02.2027 -
Udoka Godwin-Malife Burton Albion Aktiv 105 / 93 40% 1 25.02.2027 -
Jonathan Sulemana BA All Stars Aktiv 116 / 122 40% 1 25.02.2027 -
Josh Smith Accrington Stanley Aktiv 85 / 80 40% 1 24.02.2027 -
Daniel Awuni Aduana Stars Aktiv 111 / 98 40% 2 21.02.2027 -
Matías Lacava Vizela Aktiv 97 / 115 40% 1 21.02.2027 -
Nohan Kenneh Tranmere Rovers Aktiv 102 / 95 40% 1 18.02.2027 -
Ibrahim Cissoko Zwolle Aktiv 124 / 123 40% 1 18.02.2027 -
Mohamed Ali Ben Romdhane Al Ahly Aktiv 123 / 125 40% 2 17.02.2027 -
Jack Lankester Crewe Alexandra Aktiv 98 / 88 40% 1 17.02.2027 -
Connor Barrett Walsall Aktiv 107 / 96 40% 1 16.02.2027 -
Dillon Hoogewerf ES Mostaganem Aktiv 119 / 90 40% 1 16.02.2027 -
Amir Hossein Jalalivand Esteghlal Khuzestan Aktiv 100 / 88 40% 1 15.02.2027 -
Itumeleng Manyama Free State Stars Aktiv 92 / 89 40% 1 15.02.2027 -
Brian Figueroa Morelia Aktiv 126 / 114 40% 2 13.02.2027 -
Théo Hansen Hobro Aktiv 94 / 108 40% 2 09.02.2027 -
Siyanda Msani University of Pretoria Aktiv 98 / 100 40% 1 08.02.2027 -
Yegor Vedernikov Rodina M Aktiv 80 / 70 40% 1 07.02.2027 -
Lucan Louw AS Police Aktiv 64 / 78 40% 1 07.02.2027 -
Sabil Hansen Randers Aktiv 90 / 102 40% 1 06.02.2027 -
Jakub Adkonis Lechia Aktiv 82 / 115 40% 1 06.02.2027 -
Mauro Rodrigues Botev Plovdiv Aktiv 125 / 98 40% 1 01.02.2027 -
Kristiyan Stoyanov Slavia Sofia Aktiv 122 / 123 40% 2 30.01.2027 -
Akos Bese Haladas Aktiv 100 / 111 40% 1 30.01.2027 -
Maeson King Oxford United Aktiv 114 / 114 40% 1 29.01.2027 -
Fuzy Taylor Medeama Aktiv 82 / 86 40% 1 29.01.2027 -
Gustavo Assunção Apollon Aktiv 127 / 115 40% 1 28.01.2027 -
Luka Vešner Tičić Nizhniy Novgorod Aktiv 117 / 114 40% 1 28.01.2027 -
Diego Murillo Málaga Aktiv 125 / 111 40% 1 26.01.2027 -
Doğucan Haspolat Westerlo Aktiv 130 / 119 40% 1 26.01.2027 -
Ilir Krasniqi Polissia Aktiv 121 / 109 40% 1 25.01.2027 -
Tiago Freitas Benfica Aktiv 117 / 107 40% 1 24.01.2027 -
Baldovino Cimino Cosenza Aktiv 104 / 114 40% 1 24.01.2027 -
Keagan Manyama Ajax Cape Town Aktiv 102 / 114 40% 1 22.01.2027 -
Mykola Mykhailenko Dynamo Kyiv Aktiv 119 / 115 40% 1 22.01.2027 -
Tyrese Shade Burton Albion Aktiv 98 / 93 40% 1 21.01.2027 -
Tiago Esidín Padideh Aktiv 90 / 98 40% 1 21.01.2027 -
João Moreira Al Nasr Aktiv 111 / 123 40% 1 21.01.2027 -
Jean Pedroso Karpaty Aktiv 112 / 116 40% 1 21.01.2027 -
Johnly Yfeko Exeter City Aktiv 98 / 104 40% 2 19.01.2027 -
Robert Mejía Orenburg Aktiv 129 / 119 40% 1 19.01.2027 -
Edgardo Fariña Nizhniy Novgorod Aktiv 125 / 120 40% 2 18.01.2027 -
Thievy Bifouma Persepolis Aktiv 117 / 114 55% 1 18.01.2027 -
Thiago Silvero River Plate Aktiv 132 / 127 40% 1 17.01.2027 -
Jordhy Thompson Orenburg Aktiv 93 / 102 40% 1 15.01.2027 -
Soltmurad Bakaev Rodina Aktiv 90 / 116 40% 1 14.01.2027 -
Manqoba Mlele AS Police Aktiv 90 / 82 40% 1 12.01.2027 -
Adil Taoui Lokomotiv Sofia Aktiv 112 / 104 40% 1 11.01.2027 -
Behnam Barzay Malavan Aktiv 99 / 95 55% 1 01.01.2027 -
Conrad Wallem Valerenga Aktiv 125 / 122 40% 2 31.12.2026 -
Leo Goglichidze Rodina Aktiv 99 / 114 40% 1 31.12.2026 -
Jonas Auer Rapid Wien Aktiv 104 / 121 40% 1 08.12.2026 -
Markus Soomets IK Start Aktiv 113 / 109 40% 1 20.11.2026 -
Bradley M'Bondo NK Maribor Aktiv 97 / 100 40% 1 17.11.2026 -
Tiago Almeida Sumgayit Aktiv 108 / 117 40% 1 03.11.2026 -
Tsotne Kapanadze DAC Dunajska Streda Aktiv 99 / 109 40% 1 02.11.2026 -
Josef Baccay Odd Aktiv 115 / 110 40% 1 25.10.2026 -
Sinoxolo Kwayiba Chippa United Aktiv 94 / 123 40% 1 25.10.2026 -
Luther Phiri SuperSport United Aktiv 102 / 131 40% 3 22.10.2026 -
Mohamed Azzi Dinamo Makhachkala Aktiv 127 / 123 40% 1 22.10.2026 -
Pedro Bicalho Qarabag Aktiv 146 / 115 40% 2 21.10.2026 -
Łukasz Bejger NK Celje Aktiv 120 / 122 40% 1 21.10.2026 -
Nikita Kakkoev Nizhniy Novgorod Aktiv 124 / 113 40% 1 20.10.2026 -
Maxim Mukhin Rostov Aktiv 120 / 107 40% 1 20.10.2026 -
Goodman Mosele Chippa United Aktiv 97 / 116 40% 1 19.10.2026 -
Miha Kampl NK Domzale Aktiv 116 / 115 40% 1 14.10.2026 -
Valentín Fenoglio Estudiantes Aktiv 103 / 120 40% 1 14.10.2026 -
Jorge Espejo Universidad de Concepcion Aktiv 99 / 108 40% 1 08.10.2026 -
Thabang Matuludi Polokwane City Aktiv 105 / 109 40% 1 07.10.2026 -
Julián Marchio San Martín SJ Aktiv 108 / 115 40% 1 07.10.2026 -
Lebogang Erasmus Platinum Stars Aktiv 116 / 101 40% 1 06.10.2026 -
Chisom Ogbun Warri Wolves Aktiv 63 / 93 40% 1 10.09.2026 -
Marius Courcoul Angers SCO Aktiv 113 / 131 40% 1 10.09.2026 -
Ismael Cuello Belgrano Aktiv 94 / 99 40% 1 09.09.2026 -
Siyabonga Mabunda FCSB Aktiv 109 / 114 40% 1 09.09.2026 -
Giaco Garombo Boca Juniors Aktiv 95 / 103 40% 1 08.09.2026 -
Tommy McDermott Burnley Aktiv 89 / 106 40% 1 08.09.2026 -
Jim Thwaites Manchester United Aktiv 103 / 106 40% 1 07.09.2026 -
Giovanni Marques Argentinos Juniors Aktiv 84 / 87 40% 1 07.09.2026 -
Gift Isioma Warri Wolves Aktiv 63 / 75 40% 1 01.09.2026 -
Iker Córdoba Valencia Aktiv 99 / 115 40% 1 31.08.2026 -
Salvador Blopá Sporting CP Aktiv 102 / 126 40% 1 31.08.2026 -
Finn Delap Burton Albion Aktiv 81 / 89 40% 1 24.08.2026 -
Matías Magdaleno Estudiantes Aktiv 102 / 109 40% 1 24.08.2026 -
Agustín Obregón River Plate Aktiv 116 / 124 40% 1 23.08.2026 -
Lenny Agbaire Rotherham United Aktiv 96 / 91 40% 1 20.08.2026 -
Kieran Chandler Minnesota United FC Aktiv 104 / 88 40% 1 17.08.2026 -
Habib Far Abbasi Esteghlal Aktiv 101 / 101 55% 1 03.08.2026 -
Marcel Ruiz Toluca Aktiv 154 / 146 40% 1 01.08.2026 -
Saba Lobzhanidze Atlanta United FC Aktiv 119 / 110 40% 1 01.08.2026 -